• Join FlightAware (Why Join?)
  • Login
  • US Flag 
11:15AM EDT


 

Airport Tracker/Info


-or-


 

Live Flight TrackerFlight Track Log ✈ N914P ✈ 03-May-2012 ✈ KCAK - KPTK

Flight Track Log - Related Links

Times and Time Zones

All times are in EDT time to prevent confusion due to time zone crossing. See the N914P flight status page for this flight to view local times or setup timezone preferences in your user account.

Time Position Orientation Groundspeed Altitude Reporting Facility
EDT Latitude Longitude Course Direction KTS MPH feet Rate Location/Type
03:02PM 40.9229 -81.4523 239° Southwest  Level FlightAware Approximate
03:03PM 40.9464 -81.4784 225° Southwest  Level FlightAware Approximate
03:04PM 40.9699 -81.5045 212° Southwest  Level FlightAware Approximate
03:05PM 40.9933 -81.5306 200° South  Level FlightAware Approximate
03:06PM 41.0168 -81.5567 191° South  Level FlightAware Approximate
03:06PM 40.8569 -81.5961 318° Northwest 93 107 5,300  Level Cleveland Center
03:07PM 40.8733 -81.6156 320° Northwest 109 125 5,900 420 Climbing Cleveland Center
03:08PM 40.8981 -81.6433 322° Northwest 116 133 6,100  Climbing Cleveland Center
03:09PM 40.9311 -81.6769 317° Northwest 129 148 6,000 -120 Descending Cleveland Center
03:10PM 40.9558 -81.7075 317° Northwest 128 147 5,900  Descending Cleveland Center
03:11PM 40.9806 -81.7383 322° Northwest 124 143 6,000  Climbing Cleveland Center
03:12PM 41.0075 -81.7664 324° Northwest 127 146 6,000 -60 Level Cleveland Center
03:13PM 41.0364 -81.7942 316° Northwest 127 146 5,900 -60 Descending Cleveland Center
03:14PM 41.0631 -81.8278 319° Northwest 124 143 5,900  Level Cleveland Center
03:15PM 41.0878 -81.8558 316° Northwest 117 135 6,000  Climbing Cleveland Center
03:16PM 41.1144 -81.8894 326° Northwest 126 145 6,000  Level Cleveland Center
03:17PM 41.1433 -81.9150 326° Northwest 131 151 6,000  Level Cleveland Center
03:18PM 41.1744 -81.9431 323° Northwest 131 151 6,000  Level Cleveland Center
03:19PM 41.2031 -81.9714 324° Northwest 129 148 6,000  Level Cleveland Center
03:20PM 41.2319 -81.9994 323° Northwest 128 147 6,000  Level Cleveland Center
03:21PM 41.2628 -82.0306 329° Northwest 129 148 6,000  Level Cleveland Center
03:22PM 41.2917 -82.0533 326° Northwest 128 147 6,000  Level Cleveland Center
03:23PM 41.3228 -82.0817 321° Northwest 129 148 6,000  Level Cleveland Center
03:24PM 41.3494 -82.1100 325° Northwest 127 146 6,000  Level Cleveland Center
03:25PM 41.3803 -82.1383 321° Northwest 130 150 6,000 -60 Level Cleveland Center
03:26PM 41.4092 -82.1694 319° Northwest 129 148 5,900  Descending Cleveland Center
03:27PM 41.4336 -82.1978 319° Northwest 129 148 6,000  Climbing Cleveland Center
03:28PM 41.4625 -82.2317 318° Northwest 131 151 6,000 -60 Level Cleveland Center
03:29PM 41.4911 -82.2658 321° Northwest 129 148 5,900 -60 Descending Cleveland Center
03:30PM 41.5178 -82.2942 316° Northwest 128 147 5,900  Level Cleveland Center
03:31PM 41.5444 -82.3283 323° Northwest 127 146 6,000  Climbing Cleveland Center
03:32PM 41.5731 -82.3567 325° Northwest 129 148 6,000 -60 Level Cleveland Center
03:33PM 41.6039 -82.3853 325° Northwest 131 151 5,900 -60 Descending Cleveland Center
03:35PM 41.6347 -82.4139 329° Northwest 128 147 5,900  Level Cleveland Center
03:35PM 41.6636 -82.4369 328° Northwest 128 147 5,900  Level Cleveland Center
03:37PM 41.6986 -82.4658 320° Northwest 131 151 6,000 -60 Climbing Cleveland Center
03:38PM 41.7292 -82.5003 325° Northwest 130 150 5,800 -120 Descending Cleveland Center
03:39PM 41.7600 -82.5289 320° Northwest 129 148 5,800  Level Cleveland Center
03:40PM 41.8008 -82.5753 320° Northwest 125 144 5,800  Level FAA TRACON SMA TRACON (SMA)
03:41PM 41.8175 -82.5942 320° Northwest 125 144 5,800  Level FAA TRACON SMA TRACON (SMA)
03:42PM 41.8361 -82.6150 341° North 125 144 5,800 60 Level FAA TRACON SMA TRACON (SMA)
03:42PM 41.8583 -82.6250 348° North 141 162 5,900 -180 Climbing FAA TRACON SMA TRACON (SMA)
03:43PM 41.8833 -82.6322 343° North 139 160 5,600 -420 Descending FAA TRACON SMA TRACON (SMA)
03:44PM 41.9086 -82.6425 339° North 136 157 5,400 -420 Descending FAA TRACON SMA TRACON (SMA)
03:44PM 41.9317 -82.6544 336° Northwest 134 154 5,100 -360 Descending FAA TRACON SMA TRACON (SMA)
03:45PM 41.9656 -82.6747 331° Northwest 132 152 4,800 -180 Descending FAA TRACON SMA TRACON (SMA)
03:46PM 41.9869 -82.6906 331° Northwest 131 151 4,800 60 Level FAA TRACON SMA TRACON (SMA)
03:47PM 42.0081 -82.7061 334° Northwest 129 148 4,900  Climbing FAA TRACON SMA TRACON (SMA)
03:47PM 42.0286 -82.7194 334° Northwest 131 151 4,800 -120 Descending FAA TRACON SMA TRACON (SMA)
03:48PM 42.0519 -82.7347 336° Northwest 132 152 4,800  Level FAA TRACON SMA TRACON (SMA)
03:49PM 42.0761 -82.7492 338° Northwest 133 153 4,800 60 Level FAA TRACON SMA TRACON (SMA)
03:49PM 42.0969 -82.7603 337° Northwest 130 150 4,900 60 Climbing FAA TRACON SMA TRACON (SMA)
03:50PM 42.1203 -82.7736 337° Northwest 131 151 4,900 60 Level FAA TRACON SMA TRACON (SMA)
03:51PM 42.1425 -82.7861 344° North 128 147 5,000 60 Climbing FAA TRACON SMA TRACON (SMA)
03:51PM 42.1644 -82.7947 346° North 130 150 5,000  Level FAA TRACON SMA TRACON (SMA)
03:52PM 42.1894 -82.8033 344° North 134 154 5,000  Level FAA TRACON SMA TRACON (SMA)
03:53PM 42.2147 -82.8133 344° North 136 157 5,000  Level FAA TRACON SMA TRACON (SMA)
03:53PM 42.2378 -82.8222 342° North 137 158 5,000  Level FAA TRACON SMA TRACON (SMA)
03:54PM 42.2631 -82.8333 353° North 138 159 5,000  Level Cleveland Center
03:55PM 42.3025 -82.8403 342° North 141 162 5,000 -60 Level Cleveland Center
03:56PM 42.3378 -82.8556 343° North 137 158 4,900  Descending Cleveland Center
03:57PM 42.3750 -82.8711 338° Northwest 132 152 5,000 -120 Climbing Cleveland Center
03:58PM 42.4078 -82.8892 324° Northwest 129 148 4,700 -540 Descending Cleveland Center
03:59PM 42.4344 -82.9153 314° West 118 136 4,000 -660 Descending Cleveland Center
04:00PM 42.4589 -82.9500 313° West 118 136 3,400 -480 Descending Cleveland Center
04:01PM 42.4811 -82.9819 313° West 113 130 3,000 -240 Descending Cleveland Center
04:02PM 42.5072 -83.0194 309° West 122 140 3,000  Level Cleveland Center
04:03PM 42.5294 -83.0569 313° West 123 142 3,000  Level Cleveland Center
04:04PM 42.5536 -83.0917 313° West 124 143 3,100  Climbing Cleveland Center
04:05PM 42.5781 -83.1267 344° North 121 139 3,100 -60 Level Cleveland Center
04:06PM 42.6000 -83.1353 342° North 141 162 3,000 -180 Descending FAA TRACON SMA TRACON (SMA)
04:07PM 42.6225 -83.1453 313° West 131 151 2,900  Descending FAA TRACON SMA TRACON (SMA)
04:07PM 42.6372 -83.1664 311° West 119 137 3,000 60 Climbing FAA TRACON SMA TRACON (SMA)
04:08PM 42.6525 -83.1906 297° West 119 137 3,000  Level FAA TRACON SMA TRACON (SMA)
04:09PM 42.6625 -83.2172 287° West 118 136 3,000  Level FAA TRACON SMA TRACON (SMA)
04:09PM 42.6686 -83.2447 277° West 112 129 3,000  Level FAA TRACON SMA TRACON (SMA)
04:10PM 42.6711 -83.2711 271° West 107 123 3,000 -180 Level FAA TRACON SMA TRACON (SMA)
04:11PM 42.6714 -83.2981 264° West 103 119 2,800 -420 Descending FAA TRACON SMA TRACON (SMA)
04:11PM 42.6697 -83.3200 265° West 96 110 2,500 -540 Descending FAA TRACON SMA TRACON (SMA)
04:12PM 42.6683 -83.3428 266° West 88 101 2,100 -480 Descending FAA TRACON SMA TRACON (SMA)
04:13PM 42.6667 -83.3764 267° West 90 104 1,700 -540 Descending FAA TRACON SMA TRACON (SMA)
04:14PM 42.6661 -83.3906 137° Southeast 77 89 1,300 -660 Descending FAA TRACON SMA TRACON (SMA)
04:22PM 42.5438 -83.2376 307° West  Level FlightAware Approximate
04:23PM 42.5621 -83.2701 313° West  Level FlightAware Approximate
04:24PM 42.5827 -83.3000 133° Southeast  Level Estimated
04:25PM 42.5591 -83.2652 313° West  Level FlightAware Approximate
04:26PM 42.5797 -83.2951 313° West  Level Estimated